sensor_id;sensor_type;location;lat;lon;timestamp;pressure;altitude;pressure_sealevel;temperature;humidity
64078;BME280;51039;49.696;10.808;2023-03-21T00:00:57;98584.84;;;7.81;88.88
64078;BME280;51039;49.696;10.808;2023-03-21T00:03:24;98584.72;;;7.75;89.31
64078;BME280;51039;49.696;10.808;2023-03-21T00:05:50;98586.44;;;7.67;89.01
64078;BME280;51039;49.696;10.808;2023-03-21T00:08:18;98588.81;;;7.62;89.54
64078;BME280;51039;49.696;10.808;2023-03-21T00:10:47;98585.69;;;7.59;89.29
64078;BME280;51039;49.696;10.808;2023-03-21T00:13:20;98581.97;;;7.53;89.65
64078;BME280;51039;49.696;10.808;2023-03-21T00:15:45;98584.66;;;7.45;89.97
64078;BME280;51039;49.696;10.808;2023-03-21T00:18:18;98574.13;;;7.45;90.21
64078;BME280;51039;49.696;10.808;2023-03-21T00:21:01;98583.00;;;7.44;90.07
64078;BME280;51039;49.696;10.808;2023-03-21T00:23:28;98581.59;;;7.33;90.38
64078;BME280;51039;49.696;10.808;2023-03-21T00:25:55;98573.06;;;7.31;90.59
64078;BME280;51039;49.696;10.808;2023-03-21T00:28:21;98570.97;;;7.26;90.39
64078;BME280;51039;49.696;10.808;2023-03-21T00:30:47;98565.94;;;7.17;90.93
64078;BME280;51039;49.696;10.808;2023-03-21T00:33:12;98572.38;;;7.14;91.17
64078;BME280;51039;49.696;10.808;2023-03-21T00:35:39;98573.91;;;7.08;91.65
64078;BME280;51039;49.696;10.808;2023-03-21T00:38:12;98569.44;;;7.09;91.96
64078;BME280;51039;49.696;10.808;2023-03-21T00:40:38;98570.78;;;7.05;92.14
64078;BME280;51039;49.696;10.808;2023-03-21T00:43:04;98565.69;;;7.03;92.15
64078;BME280;51039;49.696;10.808;2023-03-21T00:45:30;98564.41;;;6.99;92.38
64078;BME280;51039;49.696;10.808;2023-03-21T00:47:55;98557.00;;;6.95;92.30
64078;BME280;51039;49.696;10.808;2023-03-21T00:50:21;98553.94;;;6.91;92.54
64078;BME280;51039;49.696;10.808;2023-03-21T00:52:47;98547.31;;;6.95;92.44
64078;BME280;51039;49.696;10.808;2023-03-21T00:55:13;98547.19;;;6.88;92.35
64078;BME280;51039;49.696;10.808;2023-03-21T00:57:40;98538.81;;;6.85;92.26
64078;BME280;51039;49.696;10.808;2023-03-21T01:00:07;98536.81;;;6.87;92.28
64078;BME280;51039;49.696;10.808;2023-03-21T01:02:34;98535.53;;;6.83;92.67
64078;BME280;51039;49.696;10.808;2023-03-21T01:05:02;98528.50;;;6.75;92.86
64078;BME280;51039;49.696;10.808;2023-03-21T01:07:30;98533.97;;;6.74;92.95
64078;BME280;51039;49.696;10.808;2023-03-21T01:09:55;98532.31;;;6.73;93.02
64078;BME280;51039;49.696;10.808;2023-03-21T01:12:21;98532.16;;;6.74;92.76
64078;BME280;51039;49.696;10.808;2023-03-21T01:14:46;98521.13;;;6.71;92.61
64078;BME280;51039;49.696;10.808;2023-03-21T01:17:11;98529.38;;;6.67;92.62
64078;BME280;51039;49.696;10.808;2023-03-21T01:19:36;98526.09;;;6.65;92.24
64078;BME280;51039;49.696;10.808;2023-03-21T01:22:02;98523.63;;;6.64;91.97
64078;BME280;51039;49.696;10.808;2023-03-21T01:24:27;98531.25;;;6.59;91.90
64078;BME280;51039;49.696;10.808;2023-03-21T01:26:53;98524.22;;;6.51;92.13
64078;BME280;51039;49.696;10.808;2023-03-21T01:29:18;98531.47;;;6.49;91.58
64078;BME280;51039;49.696;10.808;2023-03-21T01:31:43;98530.16;;;6.45;92.02
64078;BME280;51039;49.696;10.808;2023-03-21T01:34:08;98531.31;;;6.42;92.69
64078;BME280;51039;49.696;10.808;2023-03-21T01:36:34;98531.78;;;6.46;92.47
64078;BME280;51039;49.696;10.808;2023-03-21T01:38:59;98528.50;;;6.44;92.61
64078;BME280;51039;49.696;10.808;2023-03-21T01:41:35;98526.22;;;6.41;92.94
64078;BME280;51039;49.696;10.808;2023-03-21T01:44:03;98523.78;;;6.39;92.99
64078;BME280;51039;49.696;10.808;2023-03-21T01:49:00;98525.75;;;6.37;93.26
64078;BME280;51039;49.696;10.808;2023-03-21T01:51:41;98524.63;;;6.32;93.03
64078;BME280;51039;49.696;10.808;2023-03-21T01:54:14;98519.69;;;6.28;93.05
64078;BME280;51039;49.696;10.808;2023-03-21T01:56:44;98515.13;;;6.22;93.27
64078;BME280;51039;49.696;10.808;2023-03-21T01:59:25;98517.44;;;6.17;93.52
64078;BME280;51039;49.696;10.808;2023-03-21T02:01:57;98513.69;;;6.12;93.77
64078;BME280;51039;49.696;10.808;2023-03-21T03:25:11;98499.13;;;6.32;95.70
64078;BME280;51039;49.696;10.808;2023-03-21T03:27:41;98494.19;;;6.37;96.00
64078;BME280;51039;49.696;10.808;2023-03-21T03:30:08;98486.09;;;6.39;95.77
64078;BME280;51039;49.696;10.808;2023-03-21T03:32:40;98488.09;;;6.37;95.42
64078;BME280;51039;49.696;10.808;2023-03-21T03:35:09;98488.94;;;6.37;95.35
64078;BME280;51039;49.696;10.808;2023-03-21T03:37:37;98489.38;;;6.41;94.58
64078;BME280;51039;49.696;10.808;2023-03-21T03:40:07;98493.50;;;6.43;94.58
64078;BME280;51039;49.696;10.808;2023-03-21T03:42:46;98490.16;;;6.49;94.67
64078;BME280;51039;49.696;10.808;2023-03-21T03:45:15;98481.47;;;6.49;94.89
64078;BME280;51039;49.696;10.808;2023-03-21T03:50:26;98471.56;;;6.51;94.62
64078;BME280;51039;49.696;10.808;2023-03-21T03:53:04;98477.66;;;6.52;94.96
64078;BME280;51039;49.696;10.808;2023-03-21T03:55:30;98472.28;;;6.45;94.20
64078;BME280;51039;49.696;10.808;2023-03-21T03:57:58;98472.63;;;6.42;94.62
64078;BME280;51039;49.696;10.808;2023-03-21T04:00:25;98474.25;;;6.43;94.84
64078;BME280;51039;49.696;10.808;2023-03-21T04:02:51;98473.63;;;6.33;94.35
64078;BME280;51039;49.696;10.808;2023-03-21T04:05:16;98476.63;;;6.29;94.08
64078;BME280;51039;49.696;10.808;2023-03-21T04:07:45;98479.28;;;6.21;94.04
64078;BME280;51039;49.696;10.808;2023-03-21T04:10:15;98468.59;;;6.23;94.45
64078;BME280;51039;49.696;10.808;2023-03-21T04:12:40;98463.69;;;6.20;94.09
64078;BME280;51039;49.696;10.808;2023-03-21T04:15:06;98463.66;;;6.28;94.58
64078;BME280;51039;49.696;10.808;2023-03-21T04:17:32;98465.91;;;6.31;94.45
64078;BME280;51039;49.696;10.808;2023-03-21T04:19:57;98465.47;;;6.27;94.85
64078;BME280;51039;49.696;10.808;2023-03-21T04:22:23;98464.63;;;6.27;95.06
64078;BME280;51039;49.696;10.808;2023-03-21T04:24:48;98465.81;;;6.24;95.08
64078;BME280;51039;49.696;10.808;2023-03-21T04:27:14;98468.59;;;6.23;94.90
64078;BME280;51039;49.696;10.808;2023-03-21T04:29:39;98466.31;;;6.20;94.95
64078;BME280;51039;49.696;10.808;2023-03-21T04:32:05;98473.38;;;6.19;94.78
64078;BME280;51039;49.696;10.808;2023-03-21T04:34:40;98468.28;;;6.18;94.85
64078;BME280;51039;49.696;10.808;2023-03-21T04:37:05;98469.81;;;6.12;95.00
64078;BME280;51039;49.696;10.808;2023-03-21T04:39:37;98476.38;;;6.08;95.32
64078;BME280;51039;49.696;10.808;2023-03-21T04:42:03;98475.44;;;6.01;95.63
64078;BME280;51039;49.696;10.808;2023-03-21T04:44:28;98473.16;;;5.98;95.71
64078;BME280;51039;49.696;10.808;2023-03-21T04:46:54;98473.63;;;5.93;95.74
64078;BME280;51039;49.696;10.808;2023-03-21T04:49:20;98466.56;;;5.94;95.97
64078;BME280;51039;49.696;10.808;2023-03-21T04:51:45;98465.91;;;5.92;96.08
64078;BME280;51039;49.696;10.808;2023-03-21T04:54:10;98461.34;;;5.85;96.10
64078;BME280;51039;49.696;10.808;2023-03-21T04:56:37;98466.94;;;5.82;96.19
64078;BME280;51039;49.696;10.808;2023-03-21T04:59:07;98468.09;;;5.80;96.06
64078;BME280;51039;49.696;10.808;2023-03-21T05:01:36;98469.59;;;5.74;96.19
64078;BME280;51039;49.696;10.808;2023-03-21T05:04:02;98464.50;;;5.73;96.21
64078;BME280;51039;49.696;10.808;2023-03-21T05:06:28;98462.72;;;5.65;96.40
64078;BME280;51039;49.696;10.808;2023-03-21T05:08:54;98461.25;;;5.62;96.87
64078;BME280;51039;49.696;10.808;2023-03-21T05:11:23;98466.81;;;5.59;97.32
64078;BME280;51039;49.696;10.808;2023-03-21T05:13:50;98468.31;;;5.54;97.96
64078;BME280;51039;49.696;10.808;2023-03-21T05:16:15;98465.53;;;5.55;97.98
64078;BME280;51039;49.696;10.808;2023-03-21T05:18:40;98476.53;;;5.59;97.95
64078;BME280;51039;49.696;10.808;2023-03-21T05:21:06;98481.28;;;5.55;98.21
64078;BME280;51039;49.696;10.808;2023-03-21T05:23:34;98469.97;;;5.55;97.93
64078;BME280;51039;49.696;10.808;2023-03-21T05:26:03;98472.28;;;5.49;97.80
64078;BME280;51039;49.696;10.808;2023-03-21T05:28:32;98468.31;;;5.54;97.42
64078;BME280;51039;49.696;10.808;2023-03-21T05:31:00;98472.25;;;5.58;97.24
64078;BME280;51039;49.696;10.808;2023-03-21T05:33:29;98474.75;;;5.51;97.17
64078;BME280;51039;49.696;10.808;2023-03-21T05:35:54;98472.91;;;5.51;97.24
64078;BME280;51039;49.696;10.808;2023-03-21T05:38:20;98478.19;;;5.51;97.20
64078;BME280;51039;49.696;10.808;2023-03-21T05:40:48;98471.28;;;5.59;97.17
64078;BME280;51039;49.696;10.808;2023-03-21T05:43:14;98485.38;;;5.66;97.52
64078;BME280;51039;49.696;10.808;2023-03-21T05:45:40;98485.56;;;5.64;98.04
64078;BME280;51039;49.696;10.808;2023-03-21T05:48:05;98484.34;;;5.75;98.34
64078;BME280;51039;49.696;10.808;2023-03-21T05:50:31;98488.13;;;5.89;97.84
64078;BME280;51039;49.696;10.808;2023-03-21T05:52:57;98490.09;;;5.95;97.77
64078;BME280;51039;49.696;10.808;2023-03-21T05:55:23;98486.44;;;6.04;97.82
64078;BME280;51039;49.696;10.808;2023-03-21T05:57:48;98495.59;;;6.17;97.37
64078;BME280;51039;49.696;10.808;2023-03-21T06:00:14;98503.31;;;6.18;97.35
64078;BME280;51039;49.696;10.808;2023-03-21T06:02:40;98497.47;;;6.31;97.65
64078;BME280;51039;49.696;10.808;2023-03-21T06:05:05;98492.06;;;6.33;97.21
64078;BME280;51039;49.696;10.808;2023-03-21T06:07:31;98495.34;;;6.35;97.24
64078;BME280;51039;49.696;10.808;2023-03-21T06:09:58;98493.22;;;6.30;97.28
64078;BME280;51039;49.696;10.808;2023-03-21T06:12:23;98483.47;;;6.39;97.14
64078;BME280;51039;49.696;10.808;2023-03-21T06:14:48;98486.88;;;6.47;96.52
64078;BME280;51039;49.696;10.808;2023-03-21T06:17:14;98488.06;;;6.45;96.58
64078;BME280;51039;49.696;10.808;2023-03-21T06:19:39;98493.91;;;6.55;96.38
64078;BME280;51039;49.696;10.808;2023-03-21T06:22:05;98496.50;;;6.63;95.99
64078;BME280;51039;49.696;10.808;2023-03-21T06:24:30;98490.25;;;6.64;96.26
64078;BME280;51039;49.696;10.808;2023-03-21T06:26:56;98496.75;;;6.77;96.09
64078;BME280;51039;49.696;10.808;2023-03-21T06:29:21;98486.44;;;6.90;95.62
64078;BME280;51039;49.696;10.808;2023-03-21T06:31:47;98485.00;;;6.87;95.84
64078;BME280;51039;49.696;10.808;2023-03-21T06:34:12;98493.00;;;6.94;94.81
64078;BME280;51039;49.696;10.808;2023-03-21T06:36:37;98492.00;;;7.18;94.02
64078;BME280;51039;49.696;10.808;2023-03-21T06:39:03;98491.38;;;7.31;93.42
64078;BME280;51039;49.696;10.808;2023-03-21T06:41:29;98497.91;;;6.97;93.67
64078;BME280;51039;49.696;10.808;2023-03-21T06:43:55;98494.38;;;7.28;94.00
64078;BME280;51039;49.696;10.808;2023-03-21T06:46:20;98492.03;;;7.48;92.23
64078;BME280;51039;49.696;10.808;2023-03-21T06:48:45;98487.97;;;7.75;91.96
64078;BME280;51039;49.696;10.808;2023-03-21T06:51:11;98488.28;;;7.95;92.66
64078;BME280;51039;49.696;10.808;2023-03-21T06:53:38;98485.69;;;8.17;90.17
64078;BME280;51039;49.696;10.808;2023-03-21T06:56:05;98485.53;;;8.18;88.07
64078;BME280;51039;49.696;10.808;2023-03-21T06:58:31;98491.84;;;8.39;87.75
64078;BME280;51039;49.696;10.808;2023-03-21T07:00:57;98482.63;;;8.64;85.82
64078;BME280;51039;49.696;10.808;2023-03-21T07:03:23;98474.34;;;8.89;84.48
64078;BME280;51039;49.696;10.808;2023-03-21T07:05:49;98484.50;;;9.14;82.10
64078;BME280;51039;49.696;10.808;2023-03-21T07:08:15;98484.44;;;9.29;80.56
64078;BME280;51039;49.696;10.808;2023-03-21T07:10:41;98483.38;;;9.51;79.51
64078;BME280;51039;49.696;10.808;2023-03-21T07:13:08;98489.19;;;9.68;79.42
64078;BME280;51039;49.696;10.808;2023-03-21T07:15:33;98492.75;;;9.54;79.45
64078;BME280;51039;49.696;10.808;2023-03-21T07:18:02;98491.03;;;9.39;80.03
64078;BME280;51039;49.696;10.808;2023-03-21T07:20:30;98489.28;;;9.81;78.16
64078;BME280;51039;49.696;10.808;2023-03-21T07:22:57;98497.81;;;10.18;76.69
64078;BME280;51039;49.696;10.808;2023-03-21T07:25:23;98496.16;;;10.17;76.47
64078;BME280;51039;49.696;10.808;2023-03-21T07:27:49;98494.69;;;10.43;76.40
64078;BME280;51039;49.696;10.808;2023-03-21T07:30:14;98503.44;;;10.44;76.56
64078;BME280;51039;49.696;10.808;2023-03-21T07:32:40;98487.59;;;10.57;75.03
64078;BME280;51039;49.696;10.808;2023-03-21T07:35:07;98497.56;;;10.48;75.07
64078;BME280;51039;49.696;10.808;2023-03-21T07:37:37;98497.66;;;10.95;75.18
64078;BME280;51039;49.696;10.808;2023-03-21T07:40:03;98497.28;;;11.18;73.73
64078;BME280;51039;49.696;10.808;2023-03-21T07:42:37;98499.50;;;10.94;73.64
64078;BME280;51039;49.696;10.808;2023-03-21T07:45:03;98495.22;;;11.60;72.78
64078;BME280;51039;49.696;10.808;2023-03-21T07:47:30;98501.34;;;11.67;71.66
64078;BME280;51039;49.696;10.808;2023-03-21T07:49:56;98498.06;;;11.92;71.99
64078;BME280;51039;49.696;10.808;2023-03-21T07:52:21;98499.66;;;12.06;71.37
64078;BME280;51039;49.696;10.808;2023-03-21T07:54:46;98497.25;;;11.05;72.26
64078;BME280;51039;49.696;10.808;2023-03-21T07:57:12;98501.75;;;11.64;71.04
64078;BME280;51039;49.696;10.808;2023-03-21T07:59:37;98499.66;;;12.06;68.90
64078;BME280;51039;49.696;10.808;2023-03-21T08:02:02;98499.56;;;12.33;66.90
64078;BME280;51039;49.696;10.808;2023-03-21T08:04:28;98500.09;;;11.83;67.90
64078;BME280;51039;49.696;10.808;2023-03-21T08:06:53;98503.47;;;12.24;68.22
64078;BME280;51039;49.696;10.808;2023-03-21T08:09:18;98502.19;;;12.85;66.52
64078;BME280;51039;49.696;10.808;2023-03-21T08:11:44;98508.41;;;13.61;63.60
64078;BME280;51039;49.696;10.808;2023-03-21T08:14:09;98504.09;;;13.85;62.77
64078;BME280;51039;49.696;10.808;2023-03-21T08:16:34;98510.06;;;14.36;61.39
64078;BME280;51039;49.696;10.808;2023-03-21T08:18:59;98505.00;;;14.83;58.88
64078;BME280;51039;49.696;10.808;2023-03-21T08:21:25;98499.13;;;14.44;60.16
64078;BME280;51039;49.696;10.808;2023-03-21T08:23:51;98495.63;;;14.80;58.10
64078;BME280;51039;49.696;10.808;2023-03-21T08:26:17;98494.16;;;14.66;58.44
64078;BME280;51039;49.696;10.808;2023-03-21T08:28:43;98497.09;;;15.18;56.96
64078;BME280;51039;49.696;10.808;2023-03-21T08:31:09;98496.78;;;15.26;54.81
64078;BME280;51039;49.696;10.808;2023-03-21T08:33:36;98501.00;;;16.45;50.85
64078;BME280;51039;49.696;10.808;2023-03-21T08:36:02;98486.34;;;17.56;49.33
64078;BME280;51039;49.696;10.808;2023-03-21T08:38:28;98489.41;;;16.40;50.18
64078;BME280;51039;49.696;10.808;2023-03-21T08:40:54;98483.09;;;15.58;51.12
64078;BME280;51039;49.696;10.808;2023-03-21T08:43:20;98491.94;;;15.94;51.71
64078;BME280;51039;49.696;10.808;2023-03-21T08:45:46;98489.16;;;15.89;51.11
64078;BME280;51039;49.696;10.808;2023-03-21T08:48:11;98477.22;;;16.32;50.06
64078;BME280;51039;49.696;10.808;2023-03-21T08:50:36;98474.63;;;15.85;50.70
64078;BME280;51039;49.696;10.808;2023-03-21T08:53:02;98467.03;;;16.17;49.64
64078;BME280;51039;49.696;10.808;2023-03-21T08:55:27;98470.22;;;16.43;49.35
64078;BME280;51039;49.696;10.808;2023-03-21T08:57:52;98466.44;;;16.56;49.24
64078;BME280;51039;49.696;10.808;2023-03-21T09:00:18;98463.66;;;17.08;47.69
64078;BME280;51039;49.696;10.808;2023-03-21T09:02:45;98459.25;;;17.36;45.99
64078;BME280;51039;49.696;10.808;2023-03-21T09:05:13;98464.19;;;18.17;46.10
64078;BME280;51039;49.696;10.808;2023-03-21T09:07:40;98459.47;;;18.07;46.10
64078;BME280;51039;49.696;10.808;2023-03-21T09:10:06;98464.72;;;17.80;45.70
64078;BME280;51039;49.696;10.808;2023-03-21T09:12:34;98459.09;;;17.59;45.98
64078;BME280;51039;49.696;10.808;2023-03-21T09:14:59;98459.69;;;16.53;46.44
64078;BME280;51039;49.696;10.808;2023-03-21T09:17:26;98460.88;;;17.03;47.63
64078;BME280;51039;49.696;10.808;2023-03-21T09:19:53;98462.97;;;17.85;44.69
64078;BME280;51039;49.696;10.808;2023-03-21T09:22:18;98463.63;;;17.59;46.28
64078;BME280;51039;49.696;10.808;2023-03-21T09:24:45;98464.47;;;17.59;45.78
64078;BME280;51039;49.696;10.808;2023-03-21T09:27:12;98458.78;;;17.95;45.11
64078;BME280;51039;49.696;10.808;2023-03-21T09:29:39;98458.25;;;17.76;45.87
64078;BME280;51039;49.696;10.808;2023-03-21T09:32:07;98462.91;;;17.30;46.36
64078;BME280;51039;49.696;10.808;2023-03-21T09:34:33;98455.38;;;16.93;47.33
64078;BME280;51039;49.696;10.808;2023-03-21T09:37:00;98460.16;;;16.91;47.44
64078;BME280;51039;49.696;10.808;2023-03-21T09:39:27;98463.41;;;17.10;47.59
64078;BME280;51039;49.696;10.808;2023-03-21T09:42:05;98463.63;;;17.59;47.92
64078;BME280;51039;49.696;10.808;2023-03-21T09:44:55;98452.41;;;17.96;45.62
64078;BME280;51039;49.696;10.808;2023-03-21T09:47:30;98452.88;;;17.76;45.96
64078;BME280;51039;49.696;10.808;2023-03-21T09:50:09;98455.66;;;17.81;44.97
64078;BME280;51039;49.696;10.808;2023-03-21T09:52:45;98450.94;;;17.88;43.56
64078;BME280;51039;49.696;10.808;2023-03-21T09:55:17;98450.06;;;18.04;44.79
64078;BME280;51039;49.696;10.808;2023-03-21T09:58:12;98444.97;;;18.25;43.79
64078;BME280;51039;49.696;10.808;2023-03-21T10:00:50;98445.09;;;18.85;42.59
64078;BME280;51039;49.696;10.808;2023-03-21T10:03:24;98438.13;;;18.89;41.80
64078;BME280;51039;49.696;10.808;2023-03-21T10:05:55;98431.22;;;18.43;43.66
64078;BME280;51039;49.696;10.808;2023-03-21T10:11:05;98426.78;;;19.94;40.35
64078;BME280;51039;49.696;10.808;2023-03-21T10:13:37;98426.88;;;18.92;41.10
64078;BME280;51039;49.696;10.808;2023-03-21T10:16:12;98425.44;;;19.49;42.23
64078;BME280;51039;49.696;10.808;2023-03-21T10:18:40;98422.72;;;19.86;40.56
64078;BME280;51039;49.696;10.808;2023-03-21T10:21:10;98413.94;;;19.58;39.98
64078;BME280;51039;49.696;10.808;2023-03-21T10:23:41;98415.88;;;18.39;43.24
64078;BME280;51039;49.696;10.808;2023-03-21T10:26:07;98409.16;;;18.91;42.61
64078;BME280;51039;49.696;10.808;2023-03-21T10:28:34;98403.97;;;19.54;40.78
64078;BME280;51039;49.696;10.808;2023-03-21T10:31:03;98403.78;;;18.91;41.81
64078;BME280;51039;49.696;10.808;2023-03-21T10:33:35;98405.09;;;20.16;40.18
64078;BME280;51039;49.696;10.808;2023-03-21T10:36:25;98404.28;;;19.62;39.91
64078;BME280;51039;49.696;10.808;2023-03-21T10:39:01;98400.56;;;18.89;40.74
64078;BME280;51039;49.696;10.808;2023-03-21T10:41:30;98394.44;;;19.31;42.93
64078;BME280;51039;49.696;10.808;2023-03-21T10:44:09;98397.13;;;19.31;39.91
64078;BME280;51039;49.696;10.808;2023-03-21T10:46:38;98394.44;;;19.31;39.22
64078;BME280;51039;49.696;10.808;2023-03-21T10:49:15;98390.25;;;19.08;40.43
64078;BME280;51039;49.696;10.808;2023-03-21T10:51:40;98395.53;;;18.70;40.40
64078;BME280;51039;49.696;10.808;2023-03-21T10:54:07;98397.28;;;18.81;40.41
64078;BME280;51039;49.696;10.808;2023-03-21T10:56:37;98389.50;;;19.17;40.05
64078;BME280;51039;49.696;10.808;2023-03-21T10:59:07;98389.88;;;18.94;41.29
64078;BME280;51039;49.696;10.808;2023-03-21T11:01:41;98388.09;;;18.77;41.38
64078;BME280;51039;49.696;10.808;2023-03-21T11:04:13;98382.75;;;19.10;40.16
64078;BME280;51039;49.696;10.808;2023-03-21T11:06:42;98380.94;;;19.63;40.86
64078;BME280;51039;49.696;10.808;2023-03-21T11:09:15;98374.31;;;18.96;41.13
64078;BME280;51039;49.696;10.808;2023-03-21T11:11:51;98385.53;;;18.33;40.88
64078;BME280;51039;49.696;10.808;2023-03-21T11:14:36;98366.22;;;18.91;42.39
64078;BME280;51039;49.696;10.808;2023-03-21T11:19:45;98365.69;;;17.85;44.33
64078;BME280;51039;49.696;10.808;2023-03-21T11:22:12;98365.09;;;18.05;43.40
64078;BME280;51039;49.696;10.808;2023-03-21T11:24:38;98362.00;;;17.91;43.06
64078;BME280;51039;49.696;10.808;2023-03-21T11:27:07;98360.28;;;18.29;44.56
64078;BME280;51039;49.696;10.808;2023-03-21T11:29:39;98356.13;;;18.16;44.71
64078;BME280;51039;49.696;10.808;2023-03-21T11:35:05;98355.47;;;17.43;45.92
64078;BME280;51039;49.696;10.808;2023-03-21T11:37:33;98352.75;;;17.60;46.40
64078;BME280;51039;49.696;10.808;2023-03-21T11:40:05;98356.81;;;17.62;45.85
64078;BME280;51039;49.696;10.808;2023-03-21T11:42:43;98350.03;;;17.77;47.08
64078;BME280;51039;49.696;10.808;2023-03-21T11:45:17;98345.78;;;17.59;47.48
64078;BME280;51039;49.696;10.808;2023-03-21T11:47:45;98352.63;;;17.50;47.10
64078;BME280;51039;49.696;10.808;2023-03-21T11:50:15;98344.41;;;17.56;47.10
64078;BME280;51039;49.696;10.808;2023-03-21T11:52:42;98338.97;;;17.29;48.10
64078;BME280;51039;49.696;10.808;2023-03-21T11:55:22;98331.38;;;17.43;46.20
64078;BME280;51039;49.696;10.808;2023-03-21T12:00:28;98319.13;;;17.69;44.92
64078;BME280;51039;49.696;10.808;2023-03-21T12:06:00;98323.84;;;18.06;46.51
64078;BME280;51039;49.696;10.808;2023-03-21T12:14:17;98313.53;;;17.93;47.43
64078;BME280;51039;49.696;10.808;2023-03-21T12:16:52;98303.38;;;17.73;47.51
64078;BME280;51039;49.696;10.808;2023-03-21T12:22:10;98298.69;;;17.41;45.24
64078;BME280;51039;49.696;10.808;2023-03-21T12:24:49;98299.00;;;17.44;47.70
64078;BME280;51039;49.696;10.808;2023-03-21T12:27:30;98296.09;;;17.46;45.96
64078;BME280;51039;49.696;10.808;2023-03-21T12:30:23;98289.47;;;17.32;46.74
64078;BME280;51039;49.696;10.808;2023-03-21T12:33:22;98290.69;;;17.24;46.94
64078;BME280;51039;49.696;10.808;2023-03-21T12:36:01;98287.59;;;16.76;48.09
64078;BME280;51039;49.696;10.808;2023-03-21T12:38:37;98285.59;;;16.83;48.09
64078;BME280;51039;49.696;10.808;2023-03-21T12:41:42;98281.94;;;16.73;48.00
64078;BME280;51039;49.696;10.808;2023-03-21T12:44:16;98283.38;;;16.97;48.13
64078;BME280;51039;49.696;10.808;2023-03-21T12:46:49;98280.19;;;17.17;46.94
64078;BME280;51039;49.696;10.808;2023-03-21T12:49:21;98276.16;;;17.37;48.30
64078;BME280;51039;49.696;10.808;2023-03-21T12:51:56;98269.28;;;17.24;46.75
64078;BME280;51039;49.696;10.808;2023-03-21T12:54:36;98259.81;;;17.16;47.95
64078;BME280;51039;49.696;10.808;2023-03-21T12:57:14;98257.78;;;17.45;47.52
64078;BME280;51039;49.696;10.808;2023-03-21T12:59:54;98262.47;;;17.55;47.61
64078;BME280;51039;49.696;10.808;2023-03-21T13:02:36;98252.06;;;17.37;45.69
64078;BME280;51039;49.696;10.808;2023-03-21T13:07:46;98247.19;;;17.34;48.76
64078;BME280;51039;49.696;10.808;2023-03-21T13:10:16;98238.28;;;17.50;48.03
64078;BME280;51039;49.696;10.808;2023-03-21T13:12:50;98246.59;;;17.26;47.43
64078;BME280;51039;49.696;10.808;2023-03-21T13:21:04;98233.00;;;17.55;48.41
64078;BME280;51039;49.696;10.808;2023-03-21T13:23:37;98231.13;;;17.34;47.57
64078;BME280;51039;49.696;10.808;2023-03-21T13:26:07;98240.28;;;17.60;47.42
64078;BME280;51039;49.696;10.808;2023-03-21T13:28:35;98237.22;;;17.51;47.70
64078;BME280;51039;49.696;10.808;2023-03-21T13:31:46;98223.22;;;17.93;46.61
64078;BME280;51039;49.696;10.808;2023-03-21T13:33:53;98226.44;;;17.95;46.78
64078;BME280;51039;49.696;10.808;2023-03-21T13:36:28;98231.63;;;17.80;47.51
64078;BME280;51039;49.696;10.808;2023-03-21T13:38:59;98215.69;;;17.90;46.97
64078;BME280;51039;49.696;10.808;2023-03-21T13:41:33;98218.72;;;17.99;47.65
64078;BME280;51039;49.696;10.808;2023-03-21T13:59:09;98199.59;;;17.63;48.68
64078;BME280;51039;49.696;10.808;2023-03-21T14:09:32;98195.28;;;17.62;48.76
64078;BME280;51039;49.696;10.808;2023-03-21T14:12:02;98193.63;;;17.56;48.98
64078;BME280;51039;49.696;10.808;2023-03-21T14:14:32;98188.19;;;17.73;48.67
64078;BME280;51039;49.696;10.808;2023-03-21T14:17:10;98186.72;;;17.60;48.52
64078;BME280;51039;49.696;10.808;2023-03-21T14:19:53;98185.47;;;17.45;48.93
64078;BME280;51039;49.696;10.808;2023-03-21T14:22:20;98182.28;;;17.76;48.61
64078;BME280;51039;49.696;10.808;2023-03-21T14:24:46;98173.94;;;17.67;47.97
64078;BME280;51039;49.696;10.808;2023-03-21T14:27:24;98183.16;;;17.54;49.43
64078;BME280;51039;49.696;10.808;2023-03-21T14:29:54;98177.00;;;17.54;49.52
64078;BME280;51039;49.696;10.808;2023-03-21T14:32:24;98177.25;;;17.52;48.19
64078;BME280;51039;49.696;10.808;2023-03-21T14:34:52;98171.13;;;17.84;48.58
64078;BME280;51039;49.696;10.808;2023-03-21T14:37:32;98176.75;;;17.55;49.05
64078;BME280;51039;49.696;10.808;2023-03-21T14:40:04;98168.03;;;17.43;50.49
64078;BME280;51039;49.696;10.808;2023-03-21T14:42:35;98164.78;;;17.63;49.76
64078;BME280;51039;49.696;10.808;2023-03-21T14:45:18;98159.88;;;17.55;48.76
64078;BME280;51039;49.696;10.808;2023-03-21T14:47:59;98167.03;;;17.49;49.96
64078;BME280;51039;49.696;10.808;2023-03-21T14:50:33;98166.47;;;17.47;49.98
64078;BME280;51039;49.696;10.808;2023-03-21T14:53:04;98146.47;;;17.55;49.01
64078;BME280;51039;49.696;10.808;2023-03-21T14:55:30;98156.28;;;17.44;50.11
64078;BME280;51039;49.696;10.808;2023-03-21T14:57:55;98152.38;;;17.30;51.33
64078;BME280;51039;49.696;10.808;2023-03-21T15:00:26;98159.00;;;17.00;50.93
64078;BME280;51039;49.696;10.808;2023-03-21T15:02:53;98159.63;;;16.85;51.37
64078;BME280;51039;49.696;10.808;2023-03-21T15:05:33;98161.38;;;16.79;52.08
64078;BME280;51039;49.696;10.808;2023-03-21T15:08:22;98158.16;;;16.77;53.13
64078;BME280;51039;49.696;10.808;2023-03-21T15:13:23;98157.53;;;16.70;52.15
64078;BME280;51039;49.696;10.808;2023-03-21T15:15:51;98165.34;;;16.55;52.71
64078;BME280;51039;49.696;10.808;2023-03-21T15:18:19;98162.84;;;16.48;53.89
64078;BME280;51039;49.696;10.808;2023-03-21T15:21:05;98154.94;;;16.36;54.74
64078;BME280;51039;49.696;10.808;2023-03-21T15:23:39;98160.72;;;16.50;53.57
64078;BME280;51039;49.696;10.808;2023-03-21T15:26:11;98153.16;;;16.42;53.57
64078;BME280;51039;49.696;10.808;2023-03-21T15:28:46;98158.75;;;16.23;54.00